createdAt,value
2019-05-20T00:00:37.170Z,7.5
2019-05-20T00:05:24.869Z,9.5
2019-05-20T00:10:12.706Z,9.5
2019-05-20T00:18:55.709Z,8.4
2019-05-20T00:23:42.740Z,10.3
2019-05-20T00:28:29.497Z,11.4
2019-05-20T00:33:16.747Z,12.2
2019-05-20T00:38:50.340Z,10.7
2019-05-20T00:43:38.051Z,11
2019-05-20T00:48:25.275Z,12.5
2019-05-20T00:53:12.255Z,13
2019-05-20T01:01:08.467Z,11.2
2019-05-20T01:05:55.335Z,11.7
2019-05-20T01:10:42.191Z,13.7
2019-05-20T01:15:29.180Z,13.6
2019-05-20T01:22:51.990Z,10.9
2019-05-20T01:27:39.357Z,12
2019-05-20T01:32:26.262Z,12.8
2019-05-20T01:37:13.123Z,13.7
2019-05-20T01:44:53.193Z,10.8
2019-05-20T01:49:41.084Z,10.7
2019-05-20T01:54:28.554Z,12.8
2019-05-20T01:59:15.438Z,12.5
2019-05-20T02:06:40.185Z,10.2
2019-05-20T02:11:27.647Z,10.7
2019-05-20T02:16:16.425Z,12.2
2019-05-20T02:21:03.663Z,12.9
2019-05-20T02:28:43.487Z,10.5
2019-05-20T02:33:47.876Z,11.7
2019-05-20T02:38:39.690Z,12.6
2019-05-20T02:43:27.240Z,13.3
2019-05-20T02:49:01.191Z,11
2019-05-20T02:53:48.583Z,11
2019-05-20T02:58:35.628Z,11.6
2019-05-20T03:03:23.620Z,12.6
2019-05-20T03:11:04.494Z,11.4
2019-05-20T03:15:51.858Z,11.5
2019-05-20T03:20:39.036Z,12.9
2019-05-20T03:25:26.429Z,13.1
2019-05-20T03:31:47.079Z,11.3
2019-05-20T03:36:34.133Z,12
2019-05-20T03:41:21.202Z,13.5
2019-05-20T03:46:07.943Z,14.3
2019-05-20T03:54:08.278Z,10.6
2019-05-20T03:58:55.374Z,11.3
2019-05-20T04:03:43.010Z,11.7
2019-05-20T04:08:30.348Z,13
2019-05-20T04:16:12.281Z,10.2
2019-05-20T04:20:59.341Z,10.7
2019-05-20T04:25:46.269Z,11.7
2019-05-20T04:30:33.245Z,12.3
2019-05-20T04:38:13.532Z,11.4
2019-05-20T04:43:00.893Z,11.9
2019-05-20T04:47:48.129Z,13.6
2019-05-20T04:52:35.229Z,13
2019-05-20T04:59:57.451Z,12.5
2019-05-20T05:04:44.379Z,12.7
2019-05-20T05:09:31.711Z,13.1
2019-05-20T05:14:18.889Z,13.3
2019-05-20T05:20:07.773Z,11.8
2019-05-20T05:24:54.557Z,13.3
2019-05-20T05:29:42.241Z,12.6
2019-05-20T05:34:29.882Z,13.6
2019-05-20T05:40:18.811Z,13.2
2019-05-20T05:45:06.916Z,15.7
2019-05-20T05:49:54.876Z,17.7
2019-05-20T05:59:10.717Z,16.6
2019-05-20T06:03:58.417Z,18.4
2019-05-20T06:08:46.676Z,20.4
2019-05-20T06:17:54.534Z,17.6
2019-05-20T06:22:41.804Z,17.9
2019-05-20T06:27:28.627Z,19.6
2019-05-20T06:32:15.697Z,19.9
2019-05-20T06:40:06.145Z,16.5
2019-05-20T06:44:57.171Z,16.9
2019-05-20T06:49:44.256Z,18.4
2019-05-20T06:54:31.749Z,18.2
2019-05-20T07:03:59.890Z,15.5
2019-05-20T07:08:46.935Z,18.4
2019-05-20T07:13:36.138Z,16.8
2019-05-20T07:18:23.482Z,17.1
2019-05-20T07:27:43.399Z,14.6
2019-05-20T07:32:30.597Z,15.7
2019-05-20T07:37:18.246Z,16.8
2019-05-20T07:42:05.361Z,17.2
2019-05-20T07:46:53.430Z,17.7
2019-05-20T07:52:42.839Z,14.6
2019-05-20T07:57:30.418Z,17.5
2019-05-20T08:02:17.724Z,16.9
2019-05-20T08:07:26.034Z,18.6
2019-05-20T08:12:13.980Z,18.3
2019-05-20T08:17:01.332Z,19.5
2019-05-20T08:24:55.420Z,14.7
2019-05-20T08:29:42.891Z,16.2
2019-05-20T08:34:30.519Z,18.2
2019-05-20T08:39:18.230Z,18.3
2019-05-20T08:44:05.114Z,19
2019-05-20T08:48:52.150Z,18.4
2019-05-20T08:55:45.030Z,15.2
2019-05-20T09:00:32.023Z,16.5
2019-05-20T09:05:19.439Z,18.5
2019-05-20T09:10:07.681Z,18.9
2019-05-20T09:14:54.605Z,19.3
2019-05-20T09:19:41.908Z,21.2
2019-05-20T09:24:28.950Z,15.7
2019-05-20T09:29:15.700Z,17.6
2019-05-20T09:34:02.833Z,17.9
2019-05-20T09:38:50.747Z,18.1
2019-05-20T09:43:38.622Z,19.2
2019-05-20T09:50:14.640Z,14.1
2019-05-20T09:55:02.051Z,17.3
2019-05-20T09:59:49.387Z,18.6
2019-05-20T10:04:36.781Z,18.4
2019-05-20T10:09:23.849Z,18.5
2019-05-20T10:14:11.227Z,19
2019-05-20T10:18:59.837Z,17.9
2019-05-20T10:23:47.139Z,14.5
2019-05-20T10:28:33.859Z,15.4
2019-05-20T10:33:20.974Z,15.6
2019-05-20T10:38:08.200Z,16.1
2019-05-20T10:42:55.076Z,17.3
2019-05-20T10:50:02.114Z,13.2
2019-05-20T10:54:49.217Z,16
2019-05-20T10:59:36.129Z,17.3
2019-05-20T11:04:23.589Z,19.7
2019-05-20T11:09:42.204Z,20.4
2019-05-20T11:15:33.761Z,16.7
2019-05-20T11:20:21.023Z,16.6
2019-05-20T11:25:08.150Z,18.3
2019-05-20T11:32:46.505Z,13.3
2019-05-20T11:37:33.255Z,14.1
2019-05-20T11:42:20.635Z,15.3
2019-05-20T11:47:07.864Z,16.9
2019-05-20T11:51:55.837Z,18.5
2019-05-20T11:56:44.710Z,17.4
2019-05-20T12:01:32.046Z,16.6
2019-05-20T12:06:19.489Z,18.5
2019-05-20T12:11:06.973Z,17.8
2019-05-20T12:15:55.581Z,17.6
2019-05-20T12:20:42.872Z,17.9
2019-05-20T12:25:30.328Z,16.7
2019-05-20T12:30:17.194Z,16.7
2019-05-20T12:35:04.961Z,16.4
2019-05-20T12:40:05.808Z,16.8
2019-05-20T12:44:55.165Z,17.6
2019-05-20T12:49:43.037Z,17.3
2019-05-20T12:54:31.158Z,18.9
2019-05-20T12:59:18.529Z,18.9
2019-05-20T13:04:05.580Z,19.6
2019-05-20T13:08:52.631Z,19.6
2019-05-20T13:13:40.376Z,20.5
2019-05-20T13:18:27.287Z,20.2
2019-05-20T13:23:15.931Z,20.8
2019-05-20T13:30:07.818Z,17.5
2019-05-20T13:34:56.187Z,18.9
2019-05-20T13:39:43.243Z,18.5
2019-05-20T13:44:30.451Z,19.2
2019-05-20T13:49:17.542Z,18.5
2019-05-20T13:54:06.526Z,19.3
2019-05-20T13:58:53.975Z,18.4
2019-05-20T14:03:40.894Z,16.4
2019-05-20T14:08:28.158Z,17.1
2019-05-20T14:13:15.994Z,15.9
2019-05-20T14:18:03.083Z,14.3
2019-05-20T14:22:50.421Z,13.2
2019-05-20T14:27:37.509Z,16.7
2019-05-20T14:32:25.218Z,18
2019-05-20T14:37:12.281Z,14.6
2019-05-20T14:42:01.111Z,13.2
2019-05-20T14:46:48.619Z,11.8
2019-05-20T14:51:35.468Z,10.4
2019-05-20T14:56:22.446Z,9.6
2019-05-20T15:01:10.160Z,9.2
2019-05-20T15:05:58.471Z,8.1
2019-05-20T15:10:45.450Z,8.4
2019-05-20T15:15:33.614Z,8.2
2019-05-20T15:20:20.629Z,8.3
2019-05-20T15:25:07.617Z,7.9
2019-05-20T15:29:55.533Z,8
2019-05-20T15:34:42.793Z,7.1
2019-05-20T15:39:31.664Z,6.9
2019-05-20T15:44:19.152Z,7.3
2019-05-20T15:49:06.784Z,8.6
2019-05-20T15:53:54.281Z,7.9
2019-05-20T15:58:41.626Z,7.7
2019-05-20T16:03:28.514Z,6.7
2019-05-20T16:08:16.219Z,6.6
2019-05-20T16:13:03.021Z,6.3
2019-05-20T16:17:50.438Z,5.4
2019-05-20T16:22:37.470Z,5.2
2019-05-20T16:27:24.953Z,5.2
2019-05-20T16:32:12.664Z,4.9
2019-05-20T16:36:59.644Z,5
2019-05-20T16:41:47.377Z,4.6
2019-05-20T16:46:34.752Z,4.5
2019-05-20T16:51:22.660Z,3.8
2019-05-20T16:56:10.528Z,3
2019-05-20T17:00:58.027Z,5.5
2019-05-20T17:05:46.151Z,3.4
2019-05-20T17:10:33.145Z,2.9
2019-05-20T17:15:20.035Z,3.1
2019-05-20T17:20:07.721Z,2.4
2019-05-20T17:24:54.485Z,2.6
2019-05-20T17:29:41.258Z,2.6
2019-05-20T17:34:29.617Z,2.4
2019-05-20T17:39:18.884Z,2.4
2019-05-20T17:44:06.493Z,2.3
2019-05-20T17:48:54.797Z,2.3
2019-05-20T17:53:42.122Z,2.1
2019-05-20T17:58:28.968Z,2.2
2019-05-20T18:03:15.727Z,2.3
2019-05-20T18:08:02.668Z,2.3
2019-05-20T18:12:49.657Z,2.2
2019-05-20T18:17:36.636Z,2.3
2019-05-20T18:22:23.705Z,2.4
2019-05-20T18:27:10.709Z,2.7
2019-05-20T18:31:57.687Z,2.6
2019-05-20T18:36:44.616Z,2.6
2019-05-20T18:41:31.524Z,2.4
2019-05-20T18:46:19.576Z,2.3
2019-05-20T18:51:06.517Z,2.8
2019-05-20T18:55:53.337Z,2.7
2019-05-20T19:00:40.611Z,2.8
2019-05-20T19:05:27.961Z,2.8
2019-05-20T19:10:15.385Z,2.9
2019-05-20T19:15:03.206Z,2.7
2019-05-20T19:19:50.643Z,3.1
2019-05-20T19:24:38.692Z,3
2019-05-20T19:29:25.804Z,3.2
2019-05-20T19:34:13.116Z,3.7
2019-05-20T19:39:00.869Z,4
2019-05-20T19:43:48.689Z,4
2019-05-20T19:48:35.583Z,4.1
2019-05-20T19:53:23.717Z,4.3
2019-05-20T19:58:11.112Z,4.3
2019-05-20T20:02:57.988Z,4.6
2019-05-20T20:07:44.728Z,4.8
2019-05-20T20:12:31.600Z,6
2019-05-20T20:17:18.919Z,6.4
2019-05-20T20:22:37.799Z,5.1
2019-05-20T20:27:24.836Z,4.8
2019-05-20T20:32:11.695Z,5
2019-05-20T20:36:58.744Z,5.6
2019-05-20T20:41:45.607Z,5.9
2019-05-20T20:46:32.597Z,5.6
2019-05-20T20:51:20.368Z,5.4
2019-05-20T20:56:07.282Z,5.4
2019-05-20T21:00:55.531Z,5.1
2019-05-20T21:08:04.985Z,4.8
2019-05-20T21:12:51.940Z,4.9
2019-05-20T21:17:38.711Z,5.9
2019-05-20T21:22:26.054Z,5.2
2019-05-20T21:27:14.547Z,5.1
2019-05-20T21:32:02.032Z,5.6
2019-05-20T21:36:48.985Z,5.3
2019-05-20T21:46:18.138Z,5.5
2019-05-20T21:51:06.807Z,5.8
2019-05-20T21:55:53.970Z,6
2019-05-20T22:00:41.225Z,6
2019-05-20T22:05:28.057Z,6.2
2019-05-20T22:10:15.063Z,6.3
2019-05-20T22:15:02.198Z,6.3
2019-05-20T22:20:36.433Z,5.2
2019-05-20T22:25:23.623Z,5.1
2019-05-20T22:30:12.494Z,5.3
2019-05-20T22:35:01.529Z,5
2019-05-20T22:39:50.186Z,5.3
2019-05-20T22:44:37.375Z,5.7
2019-05-20T22:51:44.784Z,5
2019-05-20T22:56:32.565Z,5
2019-05-20T23:01:19.530Z,5.6
2019-05-20T23:06:06.902Z,6.3
2019-05-20T23:10:54.596Z,6.4
2019-05-20T23:15:41.902Z,6.8
2019-05-20T23:23:20.141Z,5.5
2019-05-20T23:28:08.235Z,5.3
2019-05-20T23:32:56.471Z,5.6
2019-05-20T23:37:44.962Z,5.8
2019-05-20T23:42:32.219Z,5.9
2019-05-20T23:47:19.535Z,6.2
2019-05-20T23:53:09.148Z,4.6
2019-05-20T23:57:56.849Z,5.4
